Byhalia, MS (38611)

7:45 PM CST on November 23, 2017 (GMT -0600)
Lewisburg *Myers Road* | | Change Station

Elev 387 ft 34.86 °N, 89.73 °W | Updated 5 seconds ago

Clear
Clear
34.2 °F
Feels Like 34 °F
N
0.0
Wind Variable Wind from West

Today
High -- | Low -- °F
--% Chance of Precip.
Yesterday
High -- | Low -- °F
Precip. -- in
Pressure 30.05 in
Visibility 10.0 miles
Clouds Few 25000 ft
Windchill 34 °F
Dew Point 29 °F
Humidity 81%
Rainfall 0.00 in
Snow Depth Not available.
6:40 AM 4:49 PM
Waxing Crescent, 26% visible
METAR KMEM 240054Z 20003KT 10SM FEW250 07/M02 A3004 RMK AO2 SLP175 T00671017
Pressure 30.05 in
Visibility 10.0 miles
Clouds Few 25000 ft
Windchill 34 °F
Dew Point 29 °F
Humidity 81%
Rainfall 0.00 in
Snow Depth Not available.
6:40 AM 4:49 PM
Waxing Crescent, 26% visible
METAR KMEM 240054Z 20003KT 10SM FEW250 07/M02 A3004 RMK AO2 SLP175 T00671017

Get Severe Weather Alerts

Thanks for signing up!

Be on the lookout for a verification email in your inbox.

You'll start receiving the daily forecast at 6 AM.

×

10-Day Weather Forecast

Almanac

Astronomy

Nov. 23, 2017 Rise Set
Actual Time
Civil Twilight
Nautical Twilight
Astronomical Twilight
Moon
Length of Visible Light
Length of Day
Tomorrow will be .
, % of the Moon is Illuminated

Today's Extremes

State Highs State Lows

Community

WunderPhotos

Category 6

Welcome to Category 6. This is the collective home for Weather Underground's featured writeups by Dr. Jeff Masters (right), Bob Henson (left), Chris Burt, and other regular contributors.

Nearby

Air Quality

  Air Quality AQ Index Pollutant
Not available.

Snow Depth

Station Depth Elevation

Earthquake Activity

City Distance Mag. Time & Date
Minimum magnitude displayed is 2.5.

Coastal Water Temperatures

Place Temperature

Stations

Nearby Weather Stations

Station Location Temp. Windchill Dew Point Humidity Wind Precip. Elev Updated Type
                   

Watches & Warnings

There are currently no watches in effect.